sensor_id;sensor_type;location;lat;lon;timestamp;P1;durP1;ratioP1;P2;durP2;ratioP2
7661;SDS011;30314;48.184;11.510;2023-02-15T00:01:49;30.43;;;11.23;;
7661;SDS011;30314;48.184;11.510;2023-02-15T00:04:17;47.57;;;12.67;;
7661;SDS011;30314;48.184;11.510;2023-02-15T00:06:45;25.70;;;11.37;;
7661;SDS011;30314;48.184;11.510;2023-02-15T00:09:12;36.37;;;12.03;;
7661;SDS011;30314;48.184;11.510;2023-02-15T00:11:39;53.67;;;13.00;;
7661;SDS011;30314;48.184;11.510;2023-02-15T00:14:10;24.03;;;12.13;;
7661;SDS011;30314;48.184;11.510;2023-02-15T00:16:39;30.00;;;12.80;;
7661;SDS011;30314;48.184;11.510;2023-02-15T00:19:07;23.73;;;12.20;;
7661;SDS011;30314;48.184;11.510;2023-02-15T00:21:35;23.73;;;14.07;;
7661;SDS011;30314;48.184;11.510;2023-02-15T00:24:03;45.43;;;11.60;;
7661;SDS011;30314;48.184;11.510;2023-02-15T00:26:31;23.60;;;11.10;;
7661;SDS011;30314;48.184;11.510;2023-02-15T00:28:58;24.57;;;11.93;;
7661;SDS011;30314;48.184;11.510;2023-02-15T00:31:26;23.60;;;12.80;;
7661;SDS011;30314;48.184;11.510;2023-02-15T00:33:54;24.20;;;12.10;;
7661;SDS011;30314;48.184;11.510;2023-02-15T00:36:21;23.30;;;12.60;;
7661;SDS011;30314;48.184;11.510;2023-02-15T00:38:47;35.80;;;11.57;;
7661;SDS011;30314;48.184;11.510;2023-02-15T00:41:15;31.57;;;11.90;;
7661;SDS011;30314;48.184;11.510;2023-02-15T00:43:42;38.57;;;11.73;;
7661;SDS011;30314;48.184;11.510;2023-02-15T00:46:08;27.40;;;12.93;;
7661;SDS011;30314;48.184;11.510;2023-02-15T00:48:35;21.10;;;11.50;;
7661;SDS011;30314;48.184;11.510;2023-02-15T00:51:02;20.40;;;11.43;;
7661;SDS011;30314;48.184;11.510;2023-02-15T00:53:29;25.93;;;11.87;;
7661;SDS011;30314;48.184;11.510;2023-02-15T00:55:57;21.50;;;12.00;;
7661;SDS011;30314;48.184;11.510;2023-02-15T00:58:24;21.63;;;11.43;;
7661;SDS011;30314;48.184;11.510;2023-02-15T01:00:51;18.27;;;10.77;;
7661;SDS011;30314;48.184;11.510;2023-02-15T01:03:19;26.63;;;11.53;;
7661;SDS011;30314;48.184;11.510;2023-02-15T01:05:47;49.43;;;11.63;;
7661;SDS011;30314;48.184;11.510;2023-02-15T01:08:15;41.30;;;11.00;;
7661;SDS011;30314;48.184;11.510;2023-02-15T01:10:42;28.53;;;12.20;;
7661;SDS011;30314;48.184;11.510;2023-02-15T01:13:10;19.17;;;10.03;;
7661;SDS011;30314;48.184;11.510;2023-02-15T01:15:36;23.57;;;9.93;;
7661;SDS011;30314;48.184;11.510;2023-02-15T01:18:03;32.37;;;11.57;;
7661;SDS011;30314;48.184;11.510;2023-02-15T01:20:29;17.53;;;9.43;;
7661;SDS011;30314;48.184;11.510;2023-02-15T01:22:56;20.13;;;11.17;;
7661;SDS011;30314;48.184;11.510;2023-02-15T01:25:23;23.33;;;10.87;;
7661;SDS011;30314;48.184;11.510;2023-02-15T01:27:51;22.40;;;9.77;;
7661;SDS011;30314;48.184;11.510;2023-02-15T01:30:17;54.60;;;12.70;;
7661;SDS011;30314;48.184;11.510;2023-02-15T01:32:44;19.23;;;10.10;;
7661;SDS011;30314;48.184;11.510;2023-02-15T01:35:11;19.77;;;10.10;;
7661;SDS011;30314;48.184;11.510;2023-02-15T01:37:37;18.60;;;10.27;;
7661;SDS011;30314;48.184;11.510;2023-02-15T01:40:05;22.33;;;9.50;;
7661;SDS011;30314;48.184;11.510;2023-02-15T01:42:37;20.40;;;10.27;;
7661;SDS011;30314;48.184;11.510;2023-02-15T01:45:05;13.50;;;8.60;;
7661;SDS011;30314;48.184;11.510;2023-02-15T01:47:47;14.67;;;8.60;;
7661;SDS011;30314;48.184;11.510;2023-02-15T01:50:22;18.73;;;9.20;;
7661;SDS011;30314;48.184;11.510;2023-02-15T01:53:19;12.27;;;7.63;;
7661;SDS011;30314;48.184;11.510;2023-02-15T01:56:00;19.27;;;10.70;;
7661;SDS011;30314;48.184;11.510;2023-02-15T01:58:31;28.03;;;9.73;;
7661;SDS011;30314;48.184;11.510;2023-02-15T02:00:58;25.60;;;9.10;;
7661;SDS011;30314;48.184;11.510;2023-02-15T02:03:40;17.50;;;8.30;;
7661;SDS011;30314;48.184;11.510;2023-02-15T02:06:14;23.20;;;8.37;;
7661;SDS011;30314;48.184;11.510;2023-02-15T02:08:41;17.27;;;9.67;;
7661;SDS011;30314;48.184;11.510;2023-02-15T02:11:10;37.30;;;9.97;;
7661;SDS011;30314;48.184;11.510;2023-02-15T02:13:37;14.90;;;9.47;;
7661;SDS011;30314;48.184;11.510;2023-02-15T02:16:08;15.37;;;8.87;;
7661;SDS011;30314;48.184;11.510;2023-02-15T02:18:41;16.37;;;8.67;;
7661;SDS011;30314;48.184;11.510;2023-02-15T02:26:55;19.20;;;7.87;;
7661;SDS011;30314;48.184;11.510;2023-02-15T02:29:46;34.50;;;10.33;;
7661;SDS011;30314;48.184;11.510;2023-02-15T02:35:27;17.60;;;8.23;;
7661;SDS011;30314;48.184;11.510;2023-02-15T02:38:11;13.27;;;7.30;;
7661;SDS011;30314;48.184;11.510;2023-02-15T02:40:58;20.07;;;9.60;;
7661;SDS011;30314;48.184;11.510;2023-02-15T02:46:52;28.43;;;9.97;;
7661;SDS011;30314;48.184;11.510;2023-02-15T02:52:00;37.13;;;9.87;;
7661;SDS011;30314;48.184;11.510;2023-02-15T02:54:28;19.13;;;8.33;;
7661;SDS011;30314;48.184;11.510;2023-02-15T02:56:58;12.97;;;8.50;;
7661;SDS011;30314;48.184;11.510;2023-02-15T02:59:31;12.83;;;7.40;;
7661;SDS011;30314;48.184;11.510;2023-02-15T03:02:05;16.43;;;9.03;;
7661;SDS011;30314;48.184;11.510;2023-02-15T03:04:41;12.00;;;7.83;;
7661;SDS011;30314;48.184;11.510;2023-02-15T03:07:15;16.70;;;9.60;;
7661;SDS011;30314;48.184;11.510;2023-02-15T03:09:49;16.33;;;8.80;;
7661;SDS011;30314;48.184;11.510;2023-02-15T03:12:19;14.03;;;8.10;;
7661;SDS011;30314;48.184;11.510;2023-02-15T03:14:49;15.97;;;9.30;;
7661;SDS011;30314;48.184;11.510;2023-02-15T03:17:21;16.63;;;8.90;;
7661;SDS011;30314;48.184;11.510;2023-02-15T03:19:50;26.70;;;8.23;;
7661;SDS011;30314;48.184;11.510;2023-02-15T03:22:20;19.00;;;9.20;;
7661;SDS011;30314;48.184;11.510;2023-02-15T03:24:57;71.53;;;11.33;;
7661;SDS011;30314;48.184;11.510;2023-02-15T03:27:31;15.03;;;8.43;;
7661;SDS011;30314;48.184;11.510;2023-02-15T03:30:13;30.63;;;9.50;;
7661;SDS011;30314;48.184;11.510;2023-02-15T03:32:44;38.03;;;10.17;;
7661;SDS011;30314;48.184;11.510;2023-02-15T03:35:13;41.43;;;10.33;;
7661;SDS011;30314;48.184;11.510;2023-02-15T03:37:59;15.50;;;9.13;;
7661;SDS011;30314;48.184;11.510;2023-02-15T03:40:31;31.33;;;10.73;;
7661;SDS011;30314;48.184;11.510;2023-02-15T03:43:33;16.43;;;8.30;;
7661;SDS011;30314;48.184;11.510;2023-02-15T03:46:20;49.43;;;10.10;;
7661;SDS011;30314;48.184;11.510;2023-02-15T03:49:14;18.87;;;10.07;;
7661;SDS011;30314;48.184;11.510;2023-02-15T03:51:48;35.63;;;12.13;;
7661;SDS011;30314;48.184;11.510;2023-02-15T03:54:26;17.10;;;9.93;;
7661;SDS011;30314;48.184;11.510;2023-02-15T03:57:13;26.37;;;9.70;;
7661;SDS011;30314;48.184;11.510;2023-02-15T03:59:59;20.00;;;8.47;;
7661;SDS011;30314;48.184;11.510;2023-02-15T04:02:55;28.30;;;10.43;;
7661;SDS011;30314;48.184;11.510;2023-02-15T04:05:31;15.83;;;9.40;;
7661;SDS011;30314;48.184;11.510;2023-02-15T04:07:58;15.23;;;8.87;;
7661;SDS011;30314;48.184;11.510;2023-02-15T04:10:24;23.30;;;10.23;;
7661;SDS011;30314;48.184;11.510;2023-02-15T04:13:10;26.97;;;10.57;;
7661;SDS011;30314;48.184;11.510;2023-02-15T04:15:36;17.23;;;10.30;;
7661;SDS011;30314;48.184;11.510;2023-02-15T04:18:21;26.70;;;10.30;;
7661;SDS011;30314;48.184;11.510;2023-02-15T04:20:53;18.13;;;9.53;;
7661;SDS011;30314;48.184;11.510;2023-02-15T04:23:38;34.87;;;11.20;;
7661;SDS011;30314;48.184;11.510;2023-02-15T04:26:23;17.87;;;9.93;;
7661;SDS011;30314;48.184;11.510;2023-02-15T04:28:50;17.77;;;9.23;;
7661;SDS011;30314;48.184;11.510;2023-02-15T04:31:16;13.40;;;8.93;;
7661;SDS011;30314;48.184;11.510;2023-02-15T04:33:43;19.67;;;9.17;;
7661;SDS011;30314;48.184;11.510;2023-02-15T04:36:10;46.90;;;11.07;;
7661;SDS011;30314;48.184;11.510;2023-02-15T04:38:36;22.27;;;11.10;;
7661;SDS011;30314;48.184;11.510;2023-02-15T04:41:02;21.37;;;10.20;;
7661;SDS011;30314;48.184;11.510;2023-02-15T04:43:29;23.27;;;10.13;;
7661;SDS011;30314;48.184;11.510;2023-02-15T04:45:55;15.03;;;9.00;;
7661;SDS011;30314;48.184;11.510;2023-02-15T04:48:22;37.73;;;10.80;;
7661;SDS011;30314;48.184;11.510;2023-02-15T04:50:48;24.67;;;10.90;;
7661;SDS011;30314;48.184;11.510;2023-02-15T04:53:15;17.90;;;9.63;;
7661;SDS011;30314;48.184;11.510;2023-02-15T04:55:43;14.17;;;7.73;;
7661;SDS011;30314;48.184;11.510;2023-02-15T04:58:10;15.43;;;9.17;;
7661;SDS011;30314;48.184;11.510;2023-02-15T05:00:36;15.63;;;8.90;;
7661;SDS011;30314;48.184;11.510;2023-02-15T05:03:03;13.03;;;8.20;;
7661;SDS011;30314;48.184;11.510;2023-02-15T05:05:29;21.43;;;9.93;;
7661;SDS011;30314;48.184;11.510;2023-02-15T05:07:56;15.23;;;8.10;;
7661;SDS011;30314;48.184;11.510;2023-02-15T05:10:22;32.40;;;10.20;;
7661;SDS011;30314;48.184;11.510;2023-02-15T05:12:49;14.43;;;8.60;;
7661;SDS011;30314;48.184;11.510;2023-02-15T05:15:15;17.83;;;9.47;;
7661;SDS011;30314;48.184;11.510;2023-02-15T05:17:42;22.43;;;8.90;;
7661;SDS011;30314;48.184;11.510;2023-02-15T05:20:08;20.43;;;9.10;;
7661;SDS011;30314;48.184;11.510;2023-02-15T05:22:35;13.53;;;8.20;;
7661;SDS011;30314;48.184;11.510;2023-02-15T05:25:02;16.40;;;10.13;;
7661;SDS011;30314;48.184;11.510;2023-02-15T05:27:47;17.93;;;9.27;;
7661;SDS011;30314;48.184;11.510;2023-02-15T05:30:32;19.60;;;9.73;;
7661;SDS011;30314;48.184;11.510;2023-02-15T05:32:59;17.63;;;9.40;;
7661;SDS011;30314;48.184;11.510;2023-02-15T05:35:25;26.80;;;9.53;;
7661;SDS011;30314;48.184;11.510;2023-02-15T05:37:52;16.50;;;9.40;;
7661;SDS011;30314;48.184;11.510;2023-02-15T05:40:18;24.30;;;9.73;;
7661;SDS011;30314;48.184;11.510;2023-02-15T05:42:45;16.03;;;8.83;;
7661;SDS011;30314;48.184;11.510;2023-02-15T05:45:11;28.83;;;9.97;;
7661;SDS011;30314;48.184;11.510;2023-02-15T05:47:37;17.20;;;9.67;;
7661;SDS011;30314;48.184;11.510;2023-02-15T05:50:04;36.73;;;11.13;;
7661;SDS011;30314;48.184;11.510;2023-02-15T05:52:32;32.63;;;10.20;;
7661;SDS011;30314;48.184;11.510;2023-02-15T05:54:58;26.10;;;9.97;;
7661;SDS011;30314;48.184;11.510;2023-02-15T05:57:26;20.40;;;10.10;;
7661;SDS011;30314;48.184;11.510;2023-02-15T05:59:53;22.47;;;11.50;;
7661;SDS011;30314;48.184;11.510;2023-02-15T06:02:19;19.33;;;9.40;;
7661;SDS011;30314;48.184;11.510;2023-02-15T06:04:46;19.00;;;11.03;;
7661;SDS011;30314;48.184;11.510;2023-02-15T06:07:12;18.60;;;10.07;;
7661;SDS011;30314;48.184;11.510;2023-02-15T06:09:39;16.27;;;9.60;;
7661;SDS011;30314;48.184;11.510;2023-02-15T06:12:05;21.20;;;11.50;;
7661;SDS011;30314;48.184;11.510;2023-02-15T06:14:32;19.70;;;10.40;;
7661;SDS011;30314;48.184;11.510;2023-02-15T06:16:59;25.23;;;11.10;;
7661;SDS011;30314;48.184;11.510;2023-02-15T06:19:25;20.07;;;10.40;;
7661;SDS011;30314;48.184;11.510;2023-02-15T06:21:52;16.70;;;11.20;;
7661;SDS011;30314;48.184;11.510;2023-02-15T06:24:18;15.53;;;9.10;;
7661;SDS011;30314;48.184;11.510;2023-02-15T06:26:44;14.57;;;9.10;;
7661;SDS011;30314;48.184;11.510;2023-02-15T06:29:11;15.00;;;9.07;;
7661;SDS011;30314;48.184;11.510;2023-02-15T06:31:37;16.77;;;9.33;;
7661;SDS011;30314;48.184;11.510;2023-02-15T06:34:04;19.90;;;10.30;;
7661;SDS011;30314;48.184;11.510;2023-02-15T06:36:31;16.10;;;9.23;;
7661;SDS011;30314;48.184;11.510;2023-02-15T06:38:58;23.00;;;8.90;;
7661;SDS011;30314;48.184;11.510;2023-02-15T06:41:24;13.93;;;8.90;;
7661;SDS011;30314;48.184;11.510;2023-02-15T06:43:51;14.07;;;9.13;;
7661;SDS011;30314;48.184;11.510;2023-02-15T06:46:17;15.13;;;9.97;;
7661;SDS011;30314;48.184;11.510;2023-02-15T06:48:44;16.07;;;9.27;;
7661;SDS011;30314;48.184;11.510;2023-02-15T06:51:10;14.07;;;9.27;;
7661;SDS011;30314;48.184;11.510;2023-02-15T06:53:37;16.27;;;7.90;;
7661;SDS011;30314;48.184;11.510;2023-02-15T06:56:04;15.50;;;8.70;;
7661;SDS011;30314;48.184;11.510;2023-02-15T06:58:38;18.40;;;9.50;;
7661;SDS011;30314;48.184;11.510;2023-02-15T07:01:06;27.57;;;10.70;;
7661;SDS011;30314;48.184;11.510;2023-02-15T07:03:33;24.40;;;11.20;;
7661;SDS011;30314;48.184;11.510;2023-02-15T07:06:02;20.43;;;10.43;;
7661;SDS011;30314;48.184;11.510;2023-02-15T07:08:31;16.20;;;9.30;;
7661;SDS011;30314;48.184;11.510;2023-02-15T07:10:58;16.83;;;8.90;;
7661;SDS011;30314;48.184;11.510;2023-02-15T07:13:45;18.17;;;10.30;;
7661;SDS011;30314;48.184;11.510;2023-02-15T07:16:12;16.30;;;8.20;;
7661;SDS011;30314;48.184;11.510;2023-02-15T07:18:39;17.93;;;10.47;;
7661;SDS011;30314;48.184;11.510;2023-02-15T07:21:06;17.27;;;9.30;;
7661;SDS011;30314;48.184;11.510;2023-02-15T07:23:36;20.03;;;9.47;;
7661;SDS011;30314;48.184;11.510;2023-02-15T07:26:04;16.83;;;10.70;;
7661;SDS011;30314;48.184;11.510;2023-02-15T07:28:32;17.97;;;11.13;;
7661;SDS011;30314;48.184;11.510;2023-02-15T07:31:03;35.73;;;9.80;;
7661;SDS011;30314;48.184;11.510;2023-02-15T07:33:31;26.40;;;12.50;;
7661;SDS011;30314;48.184;11.510;2023-02-15T07:35:59;18.37;;;10.77;;
7661;SDS011;30314;48.184;11.510;2023-02-15T07:38:32;21.30;;;10.90;;
7661;SDS011;30314;48.184;11.510;2023-02-15T07:41:04;20.20;;;10.50;;
7661;SDS011;30314;48.184;11.510;2023-02-15T07:43:34;22.40;;;12.70;;
7661;SDS011;30314;48.184;11.510;2023-02-15T07:46:06;22.00;;;12.47;;
7661;SDS011;30314;48.184;11.510;2023-02-15T07:48:35;25.50;;;12.30;;
7661;SDS011;30314;48.184;11.510;2023-02-15T07:51:02;28.73;;;13.63;;
7661;SDS011;30314;48.184;11.510;2023-02-15T07:53:30;47.10;;;14.27;;
7661;SDS011;30314;48.184;11.510;2023-02-15T07:55:58;23.70;;;12.93;;
7661;SDS011;30314;48.184;11.510;2023-02-15T07:58:29;19.93;;;12.23;;
7661;SDS011;30314;48.184;11.510;2023-02-15T08:01:14;21.20;;;12.60;;
7661;SDS011;30314;48.184;11.510;2023-02-15T08:03:41;24.50;;;12.17;;
7661;SDS011;30314;48.184;11.510;2023-02-15T08:06:07;17.60;;;11.53;;
7661;SDS011;30314;48.184;11.510;2023-02-15T08:08:34;20.97;;;12.60;;
7661;SDS011;30314;48.184;11.510;2023-02-15T08:11:03;26.67;;;13.03;;
7661;SDS011;30314;48.184;11.510;2023-02-15T08:13:58;24.97;;;12.87;;
7661;SDS011;30314;48.184;11.510;2023-02-15T08:16:30;27.70;;;14.57;;
7661;SDS011;30314;48.184;11.510;2023-02-15T08:19:06;29.67;;;14.87;;
7661;SDS011;30314;48.184;11.510;2023-02-15T08:21:34;25.33;;;14.57;;
7661;SDS011;30314;48.184;11.510;2023-02-15T08:24:02;22.97;;;12.50;;
7661;SDS011;30314;48.184;11.510;2023-02-15T08:26:30;19.30;;;11.67;;
7661;SDS011;30314;48.184;11.510;2023-02-15T08:28:58;25.80;;;12.60;;
7661;SDS011;30314;48.184;11.510;2023-02-15T08:31:25;28.03;;;15.43;;
7661;SDS011;30314;48.184;11.510;2023-02-15T08:33:52;29.13;;;16.33;;
7661;SDS011;30314;48.184;11.510;2023-02-15T08:36:21;30.90;;;16.30;;
7661;SDS011;30314;48.184;11.510;2023-02-15T08:38:49;27.80;;;15.33;;
7661;SDS011;30314;48.184;11.510;2023-02-15T08:41:20;26.20;;;14.60;;
7661;SDS011;30314;48.184;11.510;2023-02-15T08:43:52;31.57;;;15.17;;
7661;SDS011;30314;48.184;11.510;2023-02-15T08:46:20;30.60;;;15.43;;
7661;SDS011;30314;48.184;11.510;2023-02-15T08:48:48;25.93;;;14.47;;
7661;SDS011;30314;48.184;11.510;2023-02-15T08:51:16;27.93;;;15.60;;
7661;SDS011;30314;48.184;11.510;2023-02-15T08:53:48;33.47;;;18.67;;
7661;SDS011;30314;48.184;11.510;2023-02-15T08:56:17;28.47;;;15.03;;
7661;SDS011;30314;48.184;11.510;2023-02-15T08:58:46;25.93;;;15.10;;
7661;SDS011;30314;48.184;11.510;2023-02-15T09:01:13;31.03;;;17.40;;
7661;SDS011;30314;48.184;11.510;2023-02-15T09:03:46;30.30;;;17.30;;
7661;SDS011;30314;48.184;11.510;2023-02-15T09:06:18;30.43;;;15.93;;
7661;SDS011;30314;48.184;11.510;2023-02-15T09:08:45;30.40;;;17.47;;
7661;SDS011;30314;48.184;11.510;2023-02-15T09:11:16;32.90;;;17.67;;
7661;SDS011;30314;48.184;11.510;2023-02-15T09:13:55;27.93;;;15.93;;
7661;SDS011;30314;48.184;11.510;2023-02-15T09:16:24;32.80;;;17.40;;
7661;SDS011;30314;48.184;11.510;2023-02-15T09:18:53;34.30;;;18.70;;
7661;SDS011;30314;48.184;11.510;2023-02-15T09:21:23;34.90;;;18.53;;
7661;SDS011;30314;48.184;11.510;2023-02-15T09:23:52;35.60;;;18.40;;
7661;SDS011;30314;48.184;11.510;2023-02-15T09:26:23;34.10;;;19.00;;
7661;SDS011;30314;48.184;11.510;2023-02-15T09:28:51;38.57;;;20.00;;
7661;SDS011;30314;48.184;11.510;2023-02-15T09:31:24;29.33;;;16.60;;
7661;SDS011;30314;48.184;11.510;2023-02-15T09:33:52;35.00;;;19.47;;
7661;SDS011;30314;48.184;11.510;2023-02-15T09:36:20;31.07;;;17.63;;
7661;SDS011;30314;48.184;11.510;2023-02-15T09:38:59;30.70;;;18.10;;
7661;SDS011;30314;48.184;11.510;2023-02-15T09:58:35;28.70;;;17.47;;
7661;SDS011;30314;48.184;11.510;2023-02-15T10:09:53;35.77;;;20.37;;
7661;SDS011;30314;48.184;11.510;2023-02-15T10:21:02;31.30;;;19.27;;
7661;SDS011;30314;48.184;11.510;2023-02-15T10:23:55;40.50;;;19.60;;
7661;SDS011;30314;48.184;11.510;2023-02-15T10:29:09;32.07;;;17.97;;
7661;SDS011;30314;48.184;11.510;2023-02-15T10:34:18;40.37;;;21.40;;
7661;SDS011;30314;48.184;11.510;2023-02-15T10:43:08;34.20;;;19.53;;
7661;SDS011;30314;48.184;11.510;2023-02-15T10:48:27;30.63;;;18.00;;
7661;SDS011;30314;48.184;11.510;2023-02-15T10:51:00;29.87;;;18.37;;
7661;SDS011;30314;48.184;11.510;2023-02-15T10:56:12;32.53;;;19.10;;
7661;SDS011;30314;48.184;11.510;2023-02-15T11:01:39;36.93;;;20.77;;
7661;SDS011;30314;48.184;11.510;2023-02-15T11:06:59;30.67;;;18.60;;
7661;SDS011;30314;48.184;11.510;2023-02-15T11:09:37;32.63;;;17.43;;
7661;SDS011;30314;48.184;11.510;2023-02-15T11:12:12;32.30;;;19.00;;
7661;SDS011;30314;48.184;11.510;2023-02-15T11:14:45;31.33;;;18.27;;
7661;SDS011;30314;48.184;11.510;2023-02-15T11:17:18;35.43;;;19.20;;
7661;SDS011;30314;48.184;11.510;2023-02-15T11:22:30;30.67;;;18.00;;
7661;SDS011;30314;48.184;11.510;2023-02-15T11:24:59;38.63;;;19.50;;
7661;SDS011;30314;48.184;11.510;2023-02-15T11:27:29;36.53;;;19.73;;
7661;SDS011;30314;48.184;11.510;2023-02-15T11:30:05;29.03;;;17.17;;
7661;SDS011;30314;48.184;11.510;2023-02-15T11:32:37;32.53;;;17.70;;
7661;SDS011;30314;48.184;11.510;2023-02-15T11:37:39;30.80;;;18.07;;
7661;SDS011;30314;48.184;11.510;2023-02-15T11:40:15;33.47;;;19.90;;
7661;SDS011;30314;48.184;11.510;2023-02-15T11:42:48;32.20;;;19.97;;
7661;SDS011;30314;48.184;11.510;2023-02-15T11:47:57;37.37;;;18.10;;
7661;SDS011;30314;48.184;11.510;2023-02-15T11:50:26;42.33;;;19.37;;
7661;SDS011;30314;48.184;11.510;2023-02-15T11:52:59;35.17;;;20.40;;
7661;SDS011;30314;48.184;11.510;2023-02-15T11:55:29;31.23;;;19.03;;
7661;SDS011;30314;48.184;11.510;2023-02-15T12:00:48;30.50;;;18.63;;
7661;SDS011;30314;48.184;11.510;2023-02-15T12:03:20;30.40;;;19.93;;
7661;SDS011;30314;48.184;11.510;2023-02-15T12:05:53;30.90;;;18.10;;
7661;SDS011;30314;48.184;11.510;2023-02-15T12:08:24;34.43;;;18.17;;
7661;SDS011;30314;48.184;11.510;2023-02-15T12:13:29;35.90;;;17.60;;
7661;SDS011;30314;48.184;11.510;2023-02-15T12:15:57;31.50;;;17.60;;
7661;SDS011;30314;48.184;11.510;2023-02-15T12:18:35;33.53;;;19.70;;
7661;SDS011;30314;48.184;11.510;2023-02-15T12:21:09;30.80;;;17.70;;
7661;SDS011;30314;48.184;11.510;2023-02-15T12:23:54;27.97;;;18.10;;
7661;SDS011;30314;48.184;11.510;2023-02-15T12:26:28;28.10;;;17.60;;
7661;SDS011;30314;48.184;11.510;2023-02-15T12:28:59;27.03;;;16.40;;
7661;SDS011;30314;48.184;11.510;2023-02-15T12:31:31;33.13;;;19.77;;
7661;SDS011;30314;48.184;11.510;2023-02-15T12:34:03;38.23;;;19.13;;
7661;SDS011;30314;48.184;11.510;2023-02-15T12:36:42;31.50;;;17.87;;
7661;SDS011;30314;48.184;11.510;2023-02-15T12:41:43;26.43;;;16.10;;
7661;SDS011;30314;48.184;11.510;2023-02-15T12:44:17;30.20;;;18.47;;
7661;SDS011;30314;48.184;11.510;2023-02-15T12:46:55;34.80;;;18.10;;
7661;SDS011;30314;48.184;11.510;2023-02-15T12:49:28;28.53;;;18.10;;
7661;SDS011;30314;48.184;11.510;2023-02-15T12:51:58;28.07;;;17.90;;
7661;SDS011;30314;48.184;11.510;2023-02-15T12:54:39;27.43;;;15.83;;
7661;SDS011;30314;48.184;11.510;2023-02-15T12:57:24;27.10;;;17.97;;
7661;SDS011;30314;48.184;11.510;2023-02-15T13:02:44;29.17;;;18.60;;
7661;SDS011;30314;48.184;11.510;2023-02-15T13:08:15;34.87;;;19.20;;
7661;SDS011;30314;48.184;11.510;2023-02-15T13:13:54;26.83;;;18.00;;
7661;SDS011;30314;48.184;11.510;2023-02-15T13:16:24;25.93;;;17.47;;
7661;SDS011;30314;48.184;11.510;2023-02-15T13:18:58;24.93;;;17.20;;
7661;SDS011;30314;48.184;11.510;2023-02-15T13:21:41;29.10;;;16.00;;
7661;SDS011;30314;48.184;11.510;2023-02-15T13:24:17;34.00;;;15.77;;
7661;SDS011;30314;48.184;11.510;2023-02-15T13:26:49;28.53;;;16.27;;
7661;SDS011;30314;48.184;11.510;2023-02-15T13:29:25;26.33;;;16.87;;
7661;SDS011;30314;48.184;11.510;2023-02-15T13:31:54;24.73;;;15.67;;
7661;SDS011;30314;48.184;11.510;2023-02-15T13:34:33;29.37;;;16.67;;
7661;SDS011;30314;48.184;11.510;2023-02-15T13:37:17;30.27;;;16.80;;
7661;SDS011;30314;48.184;11.510;2023-02-15T13:39:49;25.93;;;16.90;;
7661;SDS011;30314;48.184;11.510;2023-02-15T13:44:56;23.67;;;16.40;;
7661;SDS011;30314;48.184;11.510;2023-02-15T13:53:22;29.73;;;17.07;;
7661;SDS011;30314;48.184;11.510;2023-02-15T13:56:01;28.03;;;17.10;;
7661;SDS011;30314;48.184;11.510;2023-02-15T14:01:57;28.70;;;16.53;;
7661;SDS011;30314;48.184;11.510;2023-02-15T14:04:29;29.83;;;17.67;;
7661;SDS011;30314;48.184;11.510;2023-02-15T14:07:22;22.60;;;15.60;;
7661;SDS011;30314;48.184;11.510;2023-02-15T14:12:56;36.83;;;16.03;;
7661;SDS011;30314;48.184;11.510;2023-02-15T14:15:47;26.70;;;15.40;;
7661;SDS011;30314;48.184;11.510;2023-02-15T14:18:24;25.30;;;15.37;;
7661;SDS011;30314;48.184;11.510;2023-02-15T14:26:37;21.93;;;15.40;;
7661;SDS011;30314;48.184;11.510;2023-02-15T14:31:56;21.50;;;13.97;;
7661;SDS011;30314;48.184;11.510;2023-02-15T14:37:27;27.07;;;15.37;;
7661;SDS011;30314;48.184;11.510;2023-02-15T14:39:58;25.83;;;15.17;;
7661;SDS011;30314;48.184;11.510;2023-02-15T14:42:53;22.33;;;14.97;;
7661;SDS011;30314;48.184;11.510;2023-02-15T14:45:31;24.13;;;14.90;;
7661;SDS011;30314;48.184;11.510;2023-02-15T14:48:12;24.20;;;15.00;;
7661;SDS011;30314;48.184;11.510;2023-02-15T14:50:48;23.90;;;15.70;;
7661;SDS011;30314;48.184;11.510;2023-02-15T14:58:34;24.10;;;13.93;;
7661;SDS011;30314;48.184;11.510;2023-02-15T15:01:05;25.93;;;17.17;;
7661;SDS011;30314;48.184;11.510;2023-02-15T15:03:34;22.90;;;14.77;;
7661;SDS011;30314;48.184;11.510;2023-02-15T15:06:04;25.50;;;14.70;;
7661;SDS011;30314;48.184;11.510;2023-02-15T15:08:33;32.03;;;15.33;;
7661;SDS011;30314;48.184;11.510;2023-02-15T15:14:08;23.27;;;15.30;;
7661;SDS011;30314;48.184;11.510;2023-02-15T15:19:03;21.97;;;15.87;;
7661;SDS011;30314;48.184;11.510;2023-02-15T15:30:25;22.10;;;15.00;;
7661;SDS011;30314;48.184;11.510;2023-02-15T15:49:14;23.80;;;14.90;;
7661;SDS011;30314;48.184;11.510;2023-02-15T15:51:43;28.03;;;17.13;;
7661;SDS011;30314;48.184;11.510;2023-02-15T15:54:18;25.80;;;15.57;;
7661;SDS011;30314;48.184;11.510;2023-02-15T15:56:48;27.80;;;16.20;;
7661;SDS011;30314;48.184;11.510;2023-02-15T15:59:18;26.67;;;17.40;;
7661;SDS011;30314;48.184;11.510;2023-02-15T16:01:48;23.47;;;15.00;;
7661;SDS011;30314;48.184;11.510;2023-02-15T16:04:29;27.67;;;17.07;;
7661;SDS011;30314;48.184;11.510;2023-02-15T16:07:05;27.53;;;16.20;;
7661;SDS011;30314;48.184;11.510;2023-02-15T16:09:58;26.77;;;15.63;;
7661;SDS011;30314;48.184;11.510;2023-02-15T16:12:31;26.40;;;17.10;;
7661;SDS011;30314;48.184;11.510;2023-02-15T16:18:13;30.67;;;17.40;;
7661;SDS011;30314;48.184;11.510;2023-02-15T16:20:48;25.40;;;16.33;;
7661;SDS011;30314;48.184;11.510;2023-02-15T16:28:58;35.07;;;20.17;;
7661;SDS011;30314;48.184;11.510;2023-02-15T16:31:25;33.00;;;18.90;;
7661;SDS011;30314;48.184;11.510;2023-02-15T16:33:52;32.90;;;20.63;;
7661;SDS011;30314;48.184;11.510;2023-02-15T16:36:21;36.97;;;22.97;;
7661;SDS011;30314;48.184;11.510;2023-02-15T16:41:22;35.07;;;20.80;;
7661;SDS011;30314;48.184;11.510;2023-02-15T16:43:51;50.90;;;28.20;;
7661;SDS011;30314;48.184;11.510;2023-02-15T16:46:22;51.27;;;26.27;;
7661;SDS011;30314;48.184;11.510;2023-02-15T16:48:52;50.17;;;25.70;;
7661;SDS011;30314;48.184;11.510;2023-02-15T16:51:24;56.67;;;30.70;;
7661;SDS011;30314;48.184;11.510;2023-02-15T16:53:54;52.13;;;28.00;;
7661;SDS011;30314;48.184;11.510;2023-02-15T16:56:23;49.20;;;26.20;;
7661;SDS011;30314;48.184;11.510;2023-02-15T16:58:51;57.47;;;27.97;;
7661;SDS011;30314;48.184;11.510;2023-02-15T17:01:20;57.57;;;28.83;;
7661;SDS011;30314;48.184;11.510;2023-02-15T17:03:50;57.70;;;28.20;;
7661;SDS011;30314;48.184;11.510;2023-02-15T17:06:36;53.13;;;28.40;;
7661;SDS011;30314;48.184;11.510;2023-02-15T17:09:03;52.17;;;28.07;;
7661;SDS011;30314;48.184;11.510;2023-02-15T17:11:36;54.17;;;27.40;;
7661;SDS011;30314;48.184;11.510;2023-02-15T17:21:48;59.40;;;27.70;;
7661;SDS011;30314;48.184;11.510;2023-02-15T17:24:22;55.03;;;26.60;;
7661;SDS011;30314;48.184;11.510;2023-02-15T17:26:55;53.30;;;25.40;;
7661;SDS011;30314;48.184;11.510;2023-02-15T17:29:29;48.50;;;25.30;;
7661;SDS011;30314;48.184;11.510;2023-02-15T17:31:57;52.90;;;25.80;;
7661;SDS011;30314;48.184;11.510;2023-02-15T17:40:16;48.53;;;25.47;;
7661;SDS011;30314;48.184;11.510;2023-02-15T17:42:44;50.00;;;25.80;;
7661;SDS011;30314;48.184;11.510;2023-02-15T17:45:10;55.00;;;25.80;;
7661;SDS011;30314;48.184;11.510;2023-02-15T17:47:40;53.67;;;28.70;;
7661;SDS011;30314;48.184;11.510;2023-02-15T17:50:07;48.63;;;24.57;;
7661;SDS011;30314;48.184;11.510;2023-02-15T17:52:41;54.70;;;25.07;;
7661;SDS011;30314;48.184;11.510;2023-02-15T17:55:12;47.50;;;22.07;;